x

Sentry Shoal (46131) Wave Buoy

10:00 - Sat 25th Jun 2016 All times are PDT. -7 hours from GMT.

  • Sig Wave height 0.7ft
  • Peak Period 6s
  • Wind
    9mph
  • Sea Temp 64°f
  • Luft Temp 65°f
  • Sea Pressure 1023.7mb
  • Sentry Shoal
  • Sentry Shoal

More Historic Weather Station data

Upgrade to MSW Pro to gain access to the past 30 days of data for over 8000 Wavebouys and Weather Stations around the globe.

Join Pro

Comparision Forecast

View Surf forecast
   
Sa 06/25 10:00 0.7ft 6s 9
mph
1023.7mb 64f 65f
9:00  -  2s 4
mph
1023.4mb 65f 65f
8:00  -  2s 2
mph
1023.6mb 64f 67f
7:00  -  2s 2 4 mph 1024mb 65f 65f
6:00  -  2s 4
mph
1024.5mb 65f 64f
5:00 0.3ft 3s 4
mph
1025mb 65f 63f
4:00  -  2s 4
mph
1025.2mb 66f 63f
3:00 0.3ft 4s 7 9 mph 1025.5mb 65f 62f
2:00  -  2s 7 9 mph 1025.5mb 66f 62f
1:00  -  2s 2
mph
1025.4mb 65f 63f
12:00 0.3ft 2s 2 4 mph 1025.5mb 64f 61f
11:00 0.3ft 3s 4 7 mph 1025.3mb 64f 60f
10:00 0.3ft 3s 7
mph
1025.1mb 63f 59f
9:00 0.3ft 3s 4
mph
1025.2mb 62f 59f
8:00 0.3ft 3s 4 7 mph 1025.1mb 63f 58f
7:00 0.3ft 3s 7
mph
1025mb 63f 58f
6:00 0.3ft 3s 7
mph
1024.6mb 63f 58f
5:00 0.3ft 2s 4 7 mph 1024.6mb 63f 59f
4:00 0.3ft 2s 2
mph
1024.5mb 63f 58f
3:00 0.3ft 2s 2 4 mph 1024.4mb 63f 59f
2:00 0.3ft 2s 7 9 mph 1024.4mb 63f 58f
1:00 0.3ft 3s 9
mph
1024.1mb 63f 61f
12:00 0.3ft 3s 4
mph
1023.8mb 63f 61f
Fr 06/24 11:00 0.7ft 3s 4
mph
1023.5mb 62f 62f
10:00 0.7ft 2s 4
mph
1023.4mb 62f 61f
9:00 0.3ft 2s 4 7 mph 1022.9mb 63f 61f
8:00 0.3ft 3s 4
mph
1022.9mb 64f 62f
7:00 0.3ft 3s 4
mph
1022.8mb 64f 62f
6:00 0.3ft 5s 7 9 mph 1022.8mb 64f 62f
5:00 0.3ft 4s 2 4 mph 1022.7mb 65f 63f
4:00 0.3ft 4s 4 7 mph 1022.5mb 65f 62f
3:00 0.3ft 3s 4 7 mph 1022.4mb 65f 62f
2:00 0.3ft 2s 2 4 mph 1021.9mb 65f 62f
1:00  -  2s 2
mph
1021.4mb 65f 62f
12:00 0.3ft 3s 2 4 mph 1020.9mb 65f 60f
11:00 0.3ft 2s  -  2 mph 1020.5mb 64f 60f
10:00 0.3ft 3s 4 7 mph 1020.2mb 63f 59f
9:00 0.3ft 2s 4
mph
1019.8mb 63f 58f
8:00 0.3ft 2s 7 9 mph 1019.4mb 63f 57f
7:00 0.3ft 3s 7 9 mph 1019mb 62f 57f
6:00 0.3ft 3s 7 9 mph 1018.4mb 62f 58f
5:00 0.7ft 2s 7 9 mph 1018mb 63f 58f
4:00 0.3ft 3s 7 9 mph 1017.6mb 62f 58f
3:00 0.3ft 6s 7 9 mph 1017.3mb 62f 58f
2:00 0.3ft 6s 7 9 mph 1017.1mb 60f 58f
1:00 0.3ft 2s 11 13 mph 1016.9mb 61f 58f
12:00 0.3ft 3s 9 11 mph 1016.8mb 61f 58f
Do 06/23 11:00 0.7ft 3s 7 9 mph 1016.7mb 62f 59f
10:00 0.7ft 3s 9 11 mph 1016.4mb 62f 59f
9:00 1ft 3s 11 13 mph 1015.7mb 62f 60f
8:00 1.3ft 4s 7 9 mph 1015.6mb 62f 60f
7:00 2.5ft 4s 4
mph
1015.5mb 62f 60f
6:00 2.5ft 4s 7 9 mph 1015.3mb 62f 59f
5:00 3ft 4s 11 13 mph 1015.2mb 62f 60f
4:00 3ft 5s 13 16 mph 1015.1mb 62f 60f
3:00 3ft 4s 16 20 mph 1014.8mb 62f 60f
2:00 2.5ft 4s 16 18 mph 1014.6mb 62f 59f
1:00 2ft 4s 11 13 mph 1014.3mb 62f 59f
12:00 2.5ft 4s 11
mph
1014.1mb 62f 59f
11:00 3ft 4s 16 18 mph 1013.6mb 62f 58f
10:00 3.5ft 4s 16 18 mph 1013.2mb 62f 58f
9:00 3ft 5s 4 11 mph 1013mb 62f 57f
8:00 2.5ft 5s 4 7 mph 1012.8mb 62f 57f
7:00 2ft 5s 7
mph
1012.5mb 62f 56f
6:00 2.5ft 3s 13 25 mph 1012.1mb 62f 57f
5:00 2.5ft 4s 22 25 mph 1012mb 63f 57f
4:00 2ft 3s 18 22 mph 1012.2mb 63f 57f
3:00 2ft 2s 18 25 mph 1012.5mb 62f 57f
2:00 1.3ft 2s 18 22 mph 1012.6mb 62f 57f
1:00 0.7ft 2s 16 18 mph 1012.9mb 62f 58f
12:00 0.7ft 2s 9
mph
1013.2mb 62f 59f
Mi 06/22 11:00 0.3ft 2s 11 16 mph 1013.3mb 62f 60f
10:00 0.3ft 2s 9
mph
1013.7mb 62f 62f
9:00 0.7ft 3s 2 4 mph 1013.9mb 62f 61f
8:00 1ft 3s 2
mph
1014.5mb 62f 61f
7:00 1ft 2s 4 7 mph 1015.3mb 62f 62f
6:00 0.7ft 2s 9
mph
1016mb 62f 62f
5:00 0.7ft 2s 9 11 mph 1016.7mb 62f 62f
4:00 1ft 2s 7 9 mph 1017.5mb 61f 61f
3:00 1.3ft 3s 9 11 mph 1017.8mb 61f 61f
2:00 1.3ft 3s 9 13 mph 1018.1mb 61f 61f
1:00 1ft 2s 11 13 mph 1018.2mb 62f 61f
12:00 0.3ft 2s 9 13 mph 1018.3mb 62f 61f
11:00 0.3ft 2s 7 9 mph 1018.4mb 62f 60f
10:00 0.3ft 2s 2 4 mph 1018.8mb 62f 59f
9:00 0.7ft 3s  -  2 mph 1018.7mb 62f 58f
8:00 0.7ft 2s 4 7 mph 1018.8mb 62f 57f
7:00 0.3ft 3s 2
mph
1018.5mb 62f 57f